• Join FlightAware (Why Join?)
  • Login
  • US Flag 
11:24PM EST


 

Airport Tracker/Info


-or-


 

Live Flight TrackerFlight Track Log ✈ KAL1338 ✈ 12-Oct-2013 ✈ RKJY / RSU - RKSS / GMP

Flight Track Log - Related Links

Times and Time Zones

All times are in EDT time to prevent confusion due to time zone crossing. See the KAL1338 flight status page for this flight to view local times or setup timezone preferences in your user account.

Time Position Orientation Groundspeed Altitude Reporting Facility
EDT Latitude Longitude Course Direction KTS MPH feet Rate Location/Type
05:08AM 35.0609 127.5504 346° North  Level Estimated
05:09AM 35.1346 127.5287 346° North  Level Estimated
05:10AM 35.2083 127.5069 346° North  Level Estimated
05:11AM 35.2820 127.4851 346° North  Level Estimated
05:12AM 35.3557 127.4633 346° North  Level Estimated
05:13AM 35.4293 127.4414 346° North  Level Estimated
05:14AM 35.5173 127.4152 346° North  Level Estimated
05:15AM 35.6052 127.3890 346° North  Level Estimated
05:16AM 35.6931 127.3627 346° North  Level Estimated
05:17AM 35.7810 127.3364 346° North  Level Estimated
05:18AM 35.8689 127.3100 346° North  Level Estimated
05:19AM 35.9568 127.2835 346° North  Level Estimated
05:20AM 36.0447 127.2570 346° North  Level Estimated
05:21AM 36.1326 127.2305 346° North  Level Estimated
05:22AM 36.2205 127.2038 346° North  Level Estimated
05:23AM 36.3084 127.1771 346° North  Level Estimated
05:24AM 36.3963 127.1504 346° North  Level Estimated
05:24AM 36.4370 127.0020 346° North 370 426 22,700  Level FlightAware
05:24AM 36.4980 127.0000 358° North 357 411 21,400 -2,340 Descending FlightAware
05:25AM 36.5580 126.9980 358° North 358 412 20,000 -2,340 Descending FlightAware
05:25AM 36.6140 126.9960 358° North 353 406 18,700 -1,920 Descending FlightAware
05:26AM 36.6710 127.0020 North 357 411 17,800 -1,440 Descending FlightAware
05:26AM 36.6920 127.0150 26° Northeast 374 430 17,500 -1,080 Descending FlightAware
05:27AM 36.7430 127.0640 38° Northeast 372 428 16,900 -960 Descending FlightAware
05:28AM 36.8080 127.1280 38° Northeast 373 429 16,200 -540 Descending FlightAware
05:28AM 36.8520 127.1700 37° Northeast 373 429 16,200 -1,080 Level FlightAware
05:29AM 36.9000 127.2180 39° Northeast 356 410 15,000 -2,160 Descending FlightAware
05:29AM 36.9580 127.2530 26° Northeast 349 402 13,600 -1,080 Descending FlightAware
05:30AM 37.0000 127.2940 38° Northeast 349 402 13,600 -2,640 Level FlightAware
05:30AM 37.0150 127.2350 288° West 291 335 11,700 -4,320 Descending FlightAware
05:31AM 37.0680 127.2150 343° North 265 305 10,300 -1,860 Descending FlightAware
05:31AM 37.0960 127.2040 343° North 239 275 9,700 -1,680 Descending FlightAware
05:32AM 37.1240 127.1930 343° North 240 276 8,900 -1,740 Descending FlightAware
05:32AM 37.1450 127.1850 343° North 224 258 8,400 -1,140 Descending FlightAware
05:32AM 37.1690 127.1760 343° North 222 255 8,100 -900 Descending FlightAware
05:33AM 37.1850 127.1700 343° North 223 257 7,800 -720 Descending FlightAware
05:33AM 37.2030 127.1630 343° North 201 231 7,700 -180 Descending FlightAware
05:33AM 37.2290 127.1530 343° North 187 215 7,700 -240 Level FlightAware
05:34AM 37.2460 127.1470 344° North 187 215 7,500 -840 Descending FlightAware
05:34AM 37.2670 127.1390 343° North 183 211 7,100 -840 Descending FlightAware
05:35AM 37.2830 127.1310 338° Northwest 173 199 6,900 -840 Descending FlightAware
05:35AM 37.2880 127.1260 321° Northwest 167 192 6,700 -960 Descending FlightAware
05:35AM 37.2970 127.1140 313° West 165 190 6,500 -900 Descending FlightAware
05:35AM 37.3060 127.1030 316° Northwest 167 192 6,200 -900 Descending FlightAware
05:36AM 37.3250 127.0800 316° Northwest 166 191 5,700 -840 Descending FlightAware
05:36AM 37.3430 127.0580 316° Northwest 178 205 5,300 -660 Descending FlightAware
05:37AM 37.3530 127.0450 314° West 168 193 5,200 -480 Descending FlightAware
05:37AM 37.3650 127.0300 315° West 156 180 5,000 -780 Descending FlightAware
05:38AM 37.3770 127.0150 315° West 158 182 4,600 -840 Descending FlightAware
05:38AM 37.3860 127.0040 316° Northwest 160 184 4,400 -900 Descending FlightAware
05:38AM 37.3990 126.9880 316° Northwest 161 185 4,000 -1,080 Descending FlightAware
05:39AM 37.4120 126.9720 316° Northwest 161 185 3,600 -900 Descending FlightAware
05:39AM 37.4290 126.9500 314° West 158 182 3,200 -900 Descending FlightAware
05:40AM 37.4450 126.9300 315° West 157 181 2,700 -960 Descending FlightAware
05:40AM 37.4560 126.9170 317° Northwest 162 186 2,400 -900 Descending FlightAware
05:40AM 37.4640 126.9070 315° West 157 181 2,200 -900 Descending FlightAware
05:41AM 37.4730 126.8940 311° West 142 163 1,900 -780 Descending FlightAware
05:41AM 37.4820 126.8830 316° Northwest 134 154 1,700 -600 Descending FlightAware
05:41AM 37.4900 126.8740 318° Northwest 135 155 1,500 -840 Descending FlightAware
05:42AM 37.5030 126.8580 316° Northwest 139 160 1,100 -900 Descending FlightAware
05:42AM 37.5060 126.8530 307° West 138 159 1,000 -600 Descending FlightAware
05:45AM 37.5583 126.7906 317° Northwest  Level Estimated